createdAt,value
2017-02-27T00:04:16.121Z,1001.08
2017-02-27T00:09:12.890Z,1001.09
2017-02-27T00:14:09.627Z,1001.10
2017-02-27T00:19:06.284Z,1000.99
2017-02-27T00:24:03.976Z,1001.05
2017-02-27T00:28:59.614Z,1001.01
2017-02-27T00:33:56.361Z,1001.02
2017-02-27T00:38:52.998Z,1000.95
2017-02-27T00:43:49.472Z,1000.98
2017-02-27T00:48:46.028Z,1000.95
2017-02-27T00:53:43.236Z,1000.93
2017-02-27T00:58:39.734Z,1000.89
2017-02-27T01:03:36.120Z,1000.93
2017-02-27T01:08:32.508Z,1000.89
2017-02-27T01:13:29.490Z,1000.72
2017-02-27T01:18:26.046Z,1000.79
2017-02-27T01:23:22.589Z,1000.77
2017-02-27T01:28:18.865Z,1000.68
2017-02-27T01:33:15.392Z,1000.60
2017-02-27T01:38:16.935Z,1000.61
2017-02-27T01:53:12.482Z,1000.36
2017-02-27T01:58:10.318Z,1000.24
2017-02-27T02:03:06.893Z,1000.19
2017-02-27T02:08:03.231Z,1000.21
2017-02-27T02:12:59.781Z,1000.09
2017-02-27T02:17:56.612Z,1000.09
2017-02-27T02:22:53.752Z,1000.12
2017-02-27T02:27:50.625Z,999.94
2017-02-27T02:32:47.221Z,999.91
2017-02-27T02:37:43.718Z,999.93
2017-02-27T02:42:40.551Z,999.77
2017-02-27T02:47:37.195Z,999.64
2017-02-27T02:52:33.638Z,999.70
2017-02-27T02:57:30.555Z,999.59
2017-02-27T03:02:27.119Z,999.58
2017-02-27T03:07:23.223Z,999.46
2017-02-27T03:12:19.894Z,999.32
2017-02-27T03:17:16.666Z,999.24
2017-02-27T03:22:13.448Z,999.12
2017-02-27T03:27:10.164Z,999.21
2017-02-27T03:32:07.229Z,999.12
2017-02-27T03:37:03.926Z,999.04
2017-02-27T03:42:00.534Z,999.02
2017-02-27T03:46:57.338Z,998.93
2017-02-27T03:51:53.857Z,998.83
2017-02-27T03:56:50.395Z,998.86
2017-02-27T04:01:46.997Z,998.82
2017-02-27T04:06:43.460Z,998.69
2017-02-27T04:11:40.279Z,998.67
2017-02-27T04:16:37.038Z,998.63
2017-02-27T04:21:33.485Z,998.61
2017-02-27T04:26:30.665Z,998.58
2017-02-27T04:31:27.302Z,998.44
2017-02-27T04:36:24.164Z,998.47
2017-02-27T04:41:20.612Z,998.46
2017-02-27T04:46:16.875Z,998.38
2017-02-27T04:51:13.575Z,998.38
2017-02-27T04:56:10.160Z,998.32
2017-02-27T05:01:06.574Z,998.25
2017-02-27T05:06:03.163Z,998.18
2017-02-27T05:10:59.607Z,998.05
2017-02-27T05:15:56.195Z,998.02
2017-02-27T05:20:52.580Z,998.04
2017-02-27T05:25:49.359Z,997.93
2017-02-27T05:30:45.792Z,997.88
2017-02-27T05:35:42.808Z,997.83
2017-02-27T05:40:39.392Z,997.76
2017-02-27T05:45:36.299Z,997.65
2017-02-27T05:50:33.770Z,997.63
2017-02-27T05:55:29.800Z,997.50
2017-02-27T06:00:26.374Z,997.49
2017-02-27T06:05:23.126Z,997.38
2017-02-27T06:10:19.560Z,997.39
2017-02-27T06:15:16.337Z,997.36
2017-02-27T06:20:16.001Z,997.44
2017-02-27T06:25:13.080Z,997.34
2017-02-27T06:30:09.469Z,997.37
2017-02-27T06:35:06.545Z,997.31
2017-02-27T06:40:03.982Z,997.23
2017-02-27T06:45:00.554Z,997.17
2017-02-27T06:49:57.235Z,997.08
2017-02-27T06:54:53.675Z,997.07
2017-02-27T06:59:50.988Z,997.07
2017-02-27T07:04:47.974Z,997.03
2017-02-27T07:09:44.908Z,996.89
2017-02-27T07:14:41.590Z,996.79
2017-02-27T07:19:38.303Z,996.75
2017-02-27T07:24:35.237Z,996.74
2017-02-27T07:29:31.276Z,996.55
2017-02-27T07:34:28.141Z,996.54
2017-02-27T07:39:24.559Z,996.51
2017-02-27T07:44:21.426Z,996.48
2017-02-27T07:49:17.968Z,996.43
2017-02-27T07:54:17.515Z,996.33
2017-02-27T07:59:13.807Z,996.28
2017-02-27T08:04:10.919Z,996.22
2017-02-27T08:09:10.220Z,996.12
2017-02-27T08:14:06.208Z,996.05
2017-02-27T08:19:02.504Z,995.94
2017-02-27T08:23:59.968Z,995.86
2017-02-27T08:28:56.596Z,995.80
2017-02-27T08:33:53.327Z,995.74
2017-02-27T08:38:50.151Z,995.71
2017-02-27T08:43:46.987Z,995.60
2017-02-27T08:48:43.668Z,995.52
2017-02-27T08:53:41.463Z,995.44
2017-02-27T08:58:37.415Z,995.53
2017-02-27T09:03:34.275Z,995.39
2017-02-27T09:08:30.499Z,995.37
2017-02-27T09:13:27.642Z,995.22
2017-02-27T09:18:24.543Z,995.24
2017-02-27T09:23:21.254Z,995.25
2017-02-27T09:28:19.494Z,995.10
2017-02-27T09:33:15.417Z,995.06
2017-02-27T09:38:12.351Z,995.00
2017-02-27T09:43:09.075Z,994.86
2017-02-27T09:48:06.235Z,994.66
2017-02-27T09:53:02.585Z,994.68
2017-02-27T09:58:01.777Z,994.55
2017-02-27T10:02:57.781Z,994.59
2017-02-27T10:07:57.454Z,994.41
2017-02-27T10:12:53.632Z,994.37
2017-02-27T10:17:50.579Z,994.27
2017-02-27T10:22:47.301Z,994.35
2017-02-27T10:27:43.967Z,994.01
2017-02-27T10:32:40.151Z,993.94
2017-02-27T10:37:36.783Z,993.64
2017-02-27T10:42:33.921Z,993.70
2017-02-27T10:47:31.459Z,993.38
2017-02-27T10:52:27.820Z,993.59
2017-02-27T10:57:26.607Z,993.28
2017-02-27T11:02:22.667Z,993.27
2017-02-27T11:07:19.024Z,993.26
2017-02-27T11:12:15.670Z,993.06
2017-02-27T11:17:12.401Z,992.98
2017-02-27T11:22:08.782Z,992.88
2017-02-27T11:27:04.756Z,992.79
2017-02-27T11:32:00.979Z,992.73
2017-02-27T11:36:58.441Z,992.70
2017-02-27T11:41:54.739Z,992.51
2017-02-27T11:46:51.159Z,992.46
2017-02-27T11:51:48.591Z,992.20
2017-02-27T11:56:45.028Z,992.16
2017-02-27T12:01:41.915Z,992.03
2017-02-27T12:06:38.769Z,991.91
2017-02-27T12:11:35.083Z,991.89
2017-02-27T12:16:31.637Z,991.75
2017-02-27T12:21:28.341Z,991.70
2017-02-27T12:26:24.613Z,991.50
2017-02-27T12:31:21.442Z,991.30
2017-02-27T12:36:17.991Z,991.34
2017-02-27T12:41:14.846Z,991.15
2017-02-27T12:46:11.138Z,991.18
2017-02-27T12:51:08.191Z,990.98
2017-02-27T12:56:04.936Z,990.76
2017-02-27T13:01:01.468Z,990.65
2017-02-27T13:05:58.071Z,990.51
2017-02-27T13:10:55.677Z,990.39
2017-02-27T13:15:52.001Z,990.20
2017-02-27T13:20:48.617Z,990.11
2017-02-27T13:25:46.141Z,990.13
2017-02-27T13:30:42.619Z,989.93
2017-02-27T13:35:39.134Z,989.94
2017-02-27T13:40:35.711Z,989.80
2017-02-27T13:45:32.984Z,989.74
2017-02-27T13:50:30.586Z,989.61
2017-02-27T13:55:26.933Z,989.53
2017-02-27T14:00:23.999Z,989.51
2017-02-27T14:05:20.458Z,989.26
2017-02-27T14:10:16.953Z,989.10
2017-02-27T14:15:13.559Z,989.14
2017-02-27T14:20:10.345Z,989.14
2017-02-27T14:25:06.551Z,988.98
2017-02-27T14:30:03.467Z,988.78
2017-02-27T14:35:00.490Z,988.75
2017-02-27T14:39:56.951Z,988.55
2017-02-27T14:44:53.949Z,988.39
2017-02-27T14:49:50.583Z,988.32
2017-02-27T14:54:46.926Z,988.11
2017-02-27T14:59:43.496Z,988.04
2017-02-27T15:04:39.996Z,987.77
2017-02-27T15:09:37.159Z,987.68
2017-02-27T15:14:33.782Z,987.51
2017-02-27T15:19:33.103Z,987.44
2017-02-27T15:24:29.013Z,987.37
2017-02-27T15:29:25.368Z,987.43
2017-02-27T15:34:22.204Z,987.10
2017-02-27T15:39:18.749Z,986.96
2017-02-27T15:44:15.441Z,986.84
2017-02-27T15:49:11.785Z,986.53
2017-02-27T15:54:08.206Z,986.56
2017-02-27T15:59:04.950Z,986.39
2017-02-27T16:04:01.691Z,986.37
2017-02-27T16:08:58.260Z,986.28
2017-02-27T16:13:54.678Z,986.02
2017-02-27T16:18:51.159Z,985.77
2017-02-27T16:23:47.611Z,985.79
2017-02-27T16:28:44.787Z,985.73
2017-02-27T16:33:41.541Z,985.61
2017-02-27T16:38:39.217Z,985.59
2017-02-27T16:43:35.612Z,985.54
2017-02-27T16:48:33.450Z,985.48
2017-02-27T16:53:29.612Z,985.28
2017-02-27T16:58:26.489Z,985.13
2017-02-27T17:03:22.460Z,985.04
2017-02-27T17:08:18.807Z,984.94
2017-02-27T17:13:15.861Z,984.82
2017-02-27T17:18:12.448Z,984.94
2017-02-27T17:23:08.948Z,984.90
2017-02-27T17:28:04.918Z,984.98
2017-02-27T17:33:01.282Z,985.02
2017-02-27T17:37:57.409Z,984.97
2017-02-27T17:42:53.688Z,985.07
2017-02-27T17:47:49.946Z,985.04
2017-02-27T17:52:47.323Z,985.05
2017-02-27T17:57:43.598Z,985.32
2017-02-27T18:02:40.082Z,985.48
2017-02-27T18:07:36.181Z,985.46
2017-02-27T18:12:32.492Z,985.62
2017-02-27T18:17:28.820Z,985.68
2017-02-27T18:22:26.670Z,985.84
2017-02-27T18:27:22.620Z,986.00
2017-02-27T18:32:20.117Z,986.03
2017-02-27T18:37:16.033Z,986.09
2017-02-27T18:42:12.127Z,985.08
2017-02-27T18:47:08.277Z,984.82
2017-02-27T18:52:04.726Z,984.68
2017-02-27T18:57:02.071Z,984.65
2017-02-27T19:01:58.626Z,984.80
2017-02-27T19:06:54.853Z,984.79
2017-02-27T19:11:50.808Z,984.48
2017-02-27T19:16:47.135Z,984.41
2017-02-27T19:21:43.651Z,984.30
2017-02-27T19:26:41.372Z,984.04
2017-02-27T19:31:37.937Z,984.05
2017-02-27T19:36:34.430Z,983.92
2017-02-27T19:41:32.110Z,983.74
2017-02-27T19:46:28.200Z,983.85
2017-02-27T19:51:24.649Z,983.83
2017-02-27T19:56:20.896Z,983.96
2017-02-27T20:01:17.804Z,984.12
2017-02-27T20:06:14.011Z,984.24
2017-02-27T20:11:10.493Z,984.04
2017-02-27T20:16:07.247Z,983.95
2017-02-27T20:21:03.689Z,983.81
2017-02-27T20:26:00.299Z,983.54
2017-02-27T20:30:56.556Z,983.19
2017-02-27T20:35:53.238Z,983.54
2017-02-27T20:40:49.524Z,983.54
2017-02-27T20:45:46.047Z,983.50
2017-02-27T20:50:42.749Z,983.75
2017-02-27T20:55:38.917Z,983.41
2017-02-27T21:00:36.514Z,983.43
2017-02-27T21:05:32.682Z,983.47
2017-02-27T21:10:29.053Z,983.16
2017-02-27T21:15:25.358Z,983.21
2017-02-27T21:20:21.654Z,983.30
2017-02-27T21:25:18.249Z,983.40
2017-02-27T21:30:14.889Z,983.36
2017-02-27T21:35:11.426Z,983.31
2017-02-27T21:40:07.790Z,983.29
2017-02-27T21:45:04.151Z,983.36
2017-02-27T21:50:00.780Z,983.36
2017-02-27T21:54:57.086Z,983.33
2017-02-27T21:59:53.648Z,983.11
2017-02-27T22:04:50.232Z,983.16
2017-02-27T22:09:48.052Z,983.25
2017-02-27T22:14:44.476Z,983.37
2017-02-27T22:19:40.947Z,983.50
2017-02-27T22:24:37.787Z,983.42
2017-02-27T22:29:34.050Z,983.26
2017-02-27T22:34:31.056Z,983.27
2017-02-27T22:39:27.918Z,983.31
2017-02-27T22:44:24.064Z,983.35
2017-02-27T22:49:20.891Z,983.16
2017-02-27T22:54:17.498Z,983.21
2017-02-27T22:59:14.727Z,983.07
2017-02-27T23:04:11.027Z,983.19
2017-02-27T23:09:07.889Z,982.85
2017-02-27T23:14:04.166Z,982.64
2017-02-27T23:19:00.755Z,982.60
2017-02-27T23:23:58.264Z,982.31
2017-02-27T23:28:54.363Z,982.32
2017-02-27T23:33:50.698Z,982.28
2017-02-27T23:38:47.685Z,982.66
2017-02-27T23:43:43.999Z,982.76
2017-02-27T23:48:41.013Z,982.69
2017-02-27T23:53:37.261Z,982.83
2017-02-27T23:58:33.825Z,982.85
